METAR and TAF information
METAR FOR LGSR
ADDS - METARS form results

(1429 UTC 26 September 2017)
Data provider http://aviationweather.gov/adds/metars/
 
METAR text: LGSR 261420Z 25009KT 230V290 9999 SCT025 25/17 Q1015
Conditions at: LGSR (SANTORINI ISLAND, GR) observed 1420 UTC 26 September 2017
Temperature: 25.0°C (77°F)
Dewpoint: 17.0°C (63°F) [RH = 61%]
Pressure (altimeter): 29.97 inches Hg (1015.0 mb)
Winds: from the WSW (250 degrees) at 10 MPH (9 knots; 4.7 m/s)
Visibility: 6 or more miles (10+ km)
Ceiling: at least 12,000 feet AGL
Clouds: scattered clouds at 2500 feet AGL
Weather: no significant weather observed at this time

METAR text: LGSR 261350Z 25008KT 220V280 9999 SCT025 26/17 Q1015
Conditions at: LGSR (SANTORINI ISLAND, GR) observed 1350 UTC 26 September 2017
Temperature: 26.0°C (79°F)
Dewpoint: 17.0°C (63°F) [RH = 58%]
Pressure (altimeter): 29.97 inches Hg (1015.0 mb)
Winds: from the WSW (250 degrees) at 9 MPH (8 knots; 4.2 m/s)
Visibility: 6 or more miles (10+ km)
Ceiling: at least 12,000 feet AGL
Clouds: scattered clouds at 2500 feet AGL
Weather: no significant weather observed at this time

Forecast for: LGSR (SANTORINI ISLAND, GR)
Text: TAF LGSR 261100Z 2612/2712 29014KT 9999 SCT025
Forecast period: 1200 UTC 26 September 2017 to 1200 UTC 27 September 2017
Forecast type: FROM: standard forecast or significant change
Winds: from the WNW (290 degrees) at 16 MPH (14 knots; 7.3 m/s)
Visibility: 6 or more miles (10+ km)
Clouds: scattered clouds at 2500 feet AGL
Weather: no significant weather forecast for this period

 Airport map

 Runway information
Runway 16L Runway length 6972 ft Runway width 98 ft
Runway elevation 123 ft Runway displaced threshold 0 ft Runway heading 159
Runway 34R Runway length 6972 ft Runway width 98 ft
Runway elevation 53 ft Runway displaced threshold 0 ft Runway heading 339
Runway 16R Runway length 0 ft Runway width 0 ft
Runway elevation 126 ft Runway displaced threshold 0 ft Runway heading 0
Runway 34L Runway length 0 ft Runway width 0 ft
Runway elevation 57 ft Runway displaced threshold 0 ft Runway heading 0

 Airport frequencies
Type A/G Name RDO Frequency 563.7 MHZ
Type APP Name APP Frequency 118.05 MHZ
Type TWR Name TWR Frequency 118.05 MHZ

 Airport & nearby NAVAIDS
Type TACAN Name Santorini Frequency 116400 KHZ
Type VOR-DME Name Santorini Frequency 110400 KHZ
Type NDB Name Thira Frequency 307 KHZ



Powered by VAM | Theme by g1g@byt3



Copyright © 2016 - 2017 Olympic Airlines Virtual. All rights reserved.

Olympic Airlines, Olympic Airways etc. are registered trademarks of
their respective owners and are hereby used only for educational
purposes.
Legal disclaimer